YUL weather

Public forecast

Using degrees Celsius for public forecast. Weather courtesy of forecast.io.

Current aviation weather report (METAR) for Montreal / Pierre Elliott Trudeau International Airport

Retrieved 2020/08/15 02:00 UTC (12 minutes ago):

CYUL 150200Z 03008KT 15SM SKC 21/14 A3009 RMK SLP192 DENSITY ALT 700FT

Aviation forecast (TAF) for Montreal / Pierre Elliott Trudeau International Airport

Retrieved 2020-08-15 00:42 UTC (2 hours ago):

TAF CYUL 142338Z 1500/1524 06012KT P6SM FEW060 BECMG 1500/1502 04008KT FM151500 08010KT P6SM FEW060 RMK NXT FCST BY 150300Z